This is the latest recevied weather packets stored in our database for station/object KB3CAT. If no packets are shown the sender has not sent any weather packets the latest 10 day(s).
| Time | Temp. | Humidity | Pressure | Rain* | Wind** | Luminosity | Snow |
|---|---|---|---|---|---|---|---|
| 1777792397 | 5° C | 67% | 1012.9 hPa | 0 mm | - | - | - |
| 1777790597 | 5.56° C | 67% | 1012.7 hPa | 0 mm | - | - | - |
| 1777788798 | 5.56° C | 68% | 1012.9 hPa | 0 mm | - | - | - |
| 1777787597 | 5.56° C | 68% | 1012.9 hPa | 0 mm | - | - | - |
| 1777785797 | 5.56° C | 69% | 1013 hPa | 0 mm | - | - | - |
| 1777784597 | 5.56° C | 70% | 1013.2 hPa | 0 mm | - | - | - |
| 1777783997 | 5.56° C | 69% | 1013.2 hPa | 0 mm | - | - | - |
| 1777778018 | 7.78° C | 63% | 1013.6 hPa | 0 mm | - | - | - |
| 1777774998 | 7.78° C | 62% | 1013.8 hPa | 0 mm | - | - | - |
| 1777752797 | 12.22° C | 45% | 1011.6 hPa | 0 mm | - | - | - |
| 1777751597 | 12.22° C | 44% | 1011.8 hPa | 0 mm | - | - | - |
| 1777750997 | 12.22° C | 46% | 1011.9 hPa | 0 mm | - | - | - |
| 1777750417 | 12.22° C | 45% | 1012.1 hPa | 0 mm | - | - | - |
| 1777745617 | 12.22° C | 43% | 1013 hPa | 0 mm | - | - | - |
| 1777743197 | 12.22° C | 38% | 1012.9 hPa | 0 mm | - | - | - |
| 1777739597 | 11.67° C | 46% | 1013.4 hPa | 0 mm | - | - | - |
| 1777737797 | 11.67° C | 44% | 1013.7 hPa | 0 mm | - | - | - |
| 1777732396 | 11.11° C | 54% | 1013.8 hPa | 0 mm | - | - | - |
| 1777731795 | 10.56° C | 56% | 1013.7 hPa | 0 mm | - | - | - |
| 1777730596 | 10° C | 56% | 1013.8 hPa | 0 mm | - | - | - |
| 1777730015 | 10° C | 59% | 1013.8 hPa | 0 mm | - | - | - |
| 1777727596 | 8.89° C | 66% | 1014 hPa | 0 mm | - | - | - |
| 1777724616 | 7.22° C | 73% | 1014.1 hPa | 0 mm | - | - | - |
| 1777722795 | 6.11° C | 75% | 1014.1 hPa | 0 mm | - | - | - |
| 1777720395 | 5.56° C | 77% | 1014 hPa | 0 mm | - | - | - |
* Rain latest hour (hover to see other rain measurements)
** Current wind speed in m/s (hover to see current wind gust speed)